sensor_id;sensor_type;location;lat;lon;timestamp;temperature;humidity
64549;DHT22;49838;51.798;10.954;2023-06-22T00:01:26;27.00;36.50
64549;DHT22;49838;51.798;10.954;2023-06-22T00:03:53;27.00;36.50
64549;DHT22;49838;51.798;10.954;2023-06-22T00:06:20;26.90;36.50
64549;DHT22;49838;51.798;10.954;2023-06-22T00:08:48;26.90;36.50
64549;DHT22;49838;51.798;10.954;2023-06-22T00:11:15;26.90;36.60
64549;DHT22;49838;51.798;10.954;2023-06-22T00:13:44;26.90;36.60
64549;DHT22;49838;51.798;10.954;2023-06-22T00:16:11;26.90;36.60
64549;DHT22;49838;51.798;10.954;2023-06-22T00:18:38;26.90;36.60
64549;DHT22;49838;51.798;10.954;2023-06-22T00:21:05;26.80;36.50
64549;DHT22;49838;51.798;10.954;2023-06-22T00:23:34;26.80;36.60
64549;DHT22;49838;51.798;10.954;2023-06-22T00:26:01;26.80;36.60
64549;DHT22;49838;51.798;10.954;2023-06-22T00:28:29;26.80;36.60
64549;DHT22;49838;51.798;10.954;2023-06-22T00:30:57;26.80;36.60
64549;DHT22;49838;51.798;10.954;2023-06-22T00:33:26;26.70;36.60
64549;DHT22;49838;51.798;10.954;2023-06-22T00:35:54;26.80;36.70
64549;DHT22;49838;51.798;10.954;2023-06-22T00:38:21;26.70;36.60
64549;DHT22;49838;51.798;10.954;2023-06-22T00:40:48;26.70;36.70
64549;DHT22;49838;51.798;10.954;2023-06-22T00:43:16;26.70;36.70
64549;DHT22;49838;51.798;10.954;2023-06-22T00:45:43;26.70;36.70
64549;DHT22;49838;51.798;10.954;2023-06-22T00:48:11;26.60;36.70
64549;DHT22;49838;51.798;10.954;2023-06-22T00:50:40;26.60;36.80
64549;DHT22;49838;51.798;10.954;2023-06-22T00:53:08;26.60;36.70
64549;DHT22;49838;51.798;10.954;2023-06-22T00:55:37;26.60;36.80
64549;DHT22;49838;51.798;10.954;2023-06-22T00:58:05;26.50;36.70
64549;DHT22;49838;51.798;10.954;2023-06-22T01:00:36;26.50;36.80
64549;DHT22;49838;51.798;10.954;2023-06-22T01:03:03;26.50;36.80
64549;DHT22;49838;51.798;10.954;2023-06-22T01:05:39;26.50;36.80
64549;DHT22;49838;51.798;10.954;2023-06-22T01:08:12;26.50;36.80
64549;DHT22;49838;51.798;10.954;2023-06-22T01:10:51;26.40;36.80
64549;DHT22;49838;51.798;10.954;2023-06-22T01:13:25;26.40;36.80
64549;DHT22;49838;51.798;10.954;2023-06-22T01:15:59;26.40;36.90
64549;DHT22;49838;51.798;10.954;2023-06-22T01:18:30;26.30;36.90
64549;DHT22;49838;51.798;10.954;2023-06-22T01:21:00;26.30;37.00
64549;DHT22;49838;51.798;10.954;2023-06-22T01:23:29;26.20;36.90
64549;DHT22;49838;51.798;10.954;2023-06-22T01:26:05;26.20;36.90
64549;DHT22;49838;51.798;10.954;2023-06-22T01:28:43;26.20;36.90
64549;DHT22;49838;51.798;10.954;2023-06-22T01:31:13;26.20;36.90
64549;DHT22;49838;51.798;10.954;2023-06-22T01:33:43;26.20;36.90
64549;DHT22;49838;51.798;10.954;2023-06-22T01:36:13;26.20;36.90
64549;DHT22;49838;51.798;10.954;2023-06-22T01:38:41;26.10;37.00
64549;DHT22;49838;51.798;10.954;2023-06-22T01:41:10;26.00;36.90
64549;DHT22;49838;51.798;10.954;2023-06-22T01:43:37;26.00;36.90
64549;DHT22;49838;51.798;10.954;2023-06-22T01:46:07;26.00;36.90
64549;DHT22;49838;51.798;10.954;2023-06-22T01:48:35;26.00;37.00
64549;DHT22;49838;51.798;10.954;2023-06-22T01:51:02;26.00;36.90
64549;DHT22;49838;51.798;10.954;2023-06-22T01:53:30;26.00;37.00
64549;DHT22;49838;51.798;10.954;2023-06-22T01:55:57;26.00;37.00
64549;DHT22;49838;51.798;10.954;2023-06-22T01:58:25;26.00;37.00
64549;DHT22;49838;51.798;10.954;2023-06-22T02:00:55;26.00;37.00
64549;DHT22;49838;51.798;10.954;2023-06-22T02:03:28;26.00;37.00
64549;DHT22;49838;51.798;10.954;2023-06-22T02:06:01;26.00;37.00
64549;DHT22;49838;51.798;10.954;2023-06-22T02:08:32;25.90;37.00
64549;DHT22;49838;51.798;10.954;2023-06-22T02:11:08;25.90;37.00
64549;DHT22;49838;51.798;10.954;2023-06-22T02:13:36;25.90;37.10
64549;DHT22;49838;51.798;10.954;2023-06-22T02:16:08;25.90;37.10
64549;DHT22;49838;51.798;10.954;2023-06-22T02:18:38;25.90;37.10
64549;DHT22;49838;51.798;10.954;2023-06-22T02:21:06;25.90;37.10
64549;DHT22;49838;51.798;10.954;2023-06-22T02:23:33;25.90;37.10
64549;DHT22;49838;51.798;10.954;2023-06-22T02:26:01;25.80;37.10
64549;DHT22;49838;51.798;10.954;2023-06-22T02:28:29;25.80;37.10
64549;DHT22;49838;51.798;10.954;2023-06-22T02:30:56;25.80;37.10
64549;DHT22;49838;51.798;10.954;2023-06-22T02:33:23;25.90;37.20
64549;DHT22;49838;51.798;10.954;2023-06-22T02:35:52;25.80;37.10
64549;DHT22;49838;51.798;10.954;2023-06-22T02:38:20;25.80;37.10
64549;DHT22;49838;51.798;10.954;2023-06-22T02:40:47;25.90;37.20
64549;DHT22;49838;51.798;10.954;2023-06-22T02:43:14;25.90;37.20
64549;DHT22;49838;51.798;10.954;2023-06-22T02:45:41;25.90;37.20
64549;DHT22;49838;51.798;10.954;2023-06-22T02:48:09;25.90;37.20
64549;DHT22;49838;51.798;10.954;2023-06-22T02:50:37;26.00;37.20
64549;DHT22;49838;51.798;10.954;2023-06-22T02:53:05;26.00;37.20
64549;DHT22;49838;51.798;10.954;2023-06-22T02:55:32;26.00;37.20
64549;DHT22;49838;51.798;10.954;2023-06-22T02:58:00;26.00;37.30
64549;DHT22;49838;51.798;10.954;2023-06-22T03:00:31;26.00;37.30
64549;DHT22;49838;51.798;10.954;2023-06-22T03:02:59;26.10;37.40
64549;DHT22;49838;51.798;10.954;2023-06-22T03:05:27;26.10;37.40
64549;DHT22;49838;51.798;10.954;2023-06-22T03:07:54;26.10;37.30
64549;DHT22;49838;51.798;10.954;2023-06-22T03:10:22;26.20;37.40
64549;DHT22;49838;51.798;10.954;2023-06-22T03:12:50;26.30;37.40
64549;DHT22;49838;51.798;10.954;2023-06-22T03:15:17;26.30;37.30
64549;DHT22;49838;51.798;10.954;2023-06-22T03:17:44;26.30;37.30
64549;DHT22;49838;51.798;10.954;2023-06-22T03:20:12;26.40;37.40
64549;DHT22;49838;51.798;10.954;2023-06-22T03:22:40;26.40;37.30
64549;DHT22;49838;51.798;10.954;2023-06-22T03:25:09;26.50;37.30
64549;DHT22;49838;51.798;10.954;2023-06-22T03:27:40;26.60;37.30
64549;DHT22;49838;51.798;10.954;2023-06-22T03:30:08;26.60;37.30
64549;DHT22;49838;51.798;10.954;2023-06-22T03:32:38;26.60;37.30
64549;DHT22;49838;51.798;10.954;2023-06-22T03:35:05;26.70;37.40
64549;DHT22;49838;51.798;10.954;2023-06-22T03:37:33;26.70;37.50
64549;DHT22;49838;51.798;10.954;2023-06-22T03:40:01;26.70;37.50
64549;DHT22;49838;51.798;10.954;2023-06-22T03:42:28;26.70;37.50
64549;DHT22;49838;51.798;10.954;2023-06-22T03:44:57;26.70;37.60
64549;DHT22;49838;51.798;10.954;2023-06-22T03:47:24;26.70;37.60
64549;DHT22;49838;51.798;10.954;2023-06-22T03:49:51;26.70;37.40
64549;DHT22;49838;51.798;10.954;2023-06-22T03:52:21;26.70;37.50
64549;DHT22;49838;51.798;10.954;2023-06-22T03:54:48;26.80;37.60
64549;DHT22;49838;51.798;10.954;2023-06-22T03:57:16;26.80;37.60
64549;DHT22;49838;51.798;10.954;2023-06-22T03:59:43;26.80;37.60
64549;DHT22;49838;51.798;10.954;2023-06-22T04:02:12;26.80;37.60
64549;DHT22;49838;51.798;10.954;2023-06-22T04:04:39;26.90;37.60
64549;DHT22;49838;51.798;10.954;2023-06-22T04:07:06;26.90;37.60
64549;DHT22;49838;51.798;10.954;2023-06-22T04:09:34;27.00;37.60
64549;DHT22;49838;51.798;10.954;2023-06-22T04:12:01;27.10;37.70
64549;DHT22;49838;51.798;10.954;2023-06-22T04:14:29;27.10;37.60
64549;DHT22;49838;51.798;10.954;2023-06-22T04:16:57;27.20;37.60
64549;DHT22;49838;51.798;10.954;2023-06-22T04:19:25;27.20;37.70
64549;DHT22;49838;51.798;10.954;2023-06-22T04:21:53;27.20;38.30
64549;DHT22;49838;51.798;10.954;2023-06-22T04:24:20;27.30;37.60
64549;DHT22;49838;51.798;10.954;2023-06-22T04:26:47;27.30;37.60
64549;DHT22;49838;51.798;10.954;2023-06-22T04:29:14;27.40;37.70
64549;DHT22;49838;51.798;10.954;2023-06-22T04:31:42;27.50;37.70
64549;DHT22;49838;51.798;10.954;2023-06-22T04:34:09;27.50;37.70
64549;DHT22;49838;51.798;10.954;2023-06-22T04:36:38;27.60;37.80
64549;DHT22;49838;51.798;10.954;2023-06-22T04:39:08;27.60;37.80
64549;DHT22;49838;51.798;10.954;2023-06-22T04:41:36;27.70;37.80
64549;DHT22;49838;51.798;10.954;2023-06-22T04:44:14;27.70;37.80
64549;DHT22;49838;51.798;10.954;2023-06-22T04:46:49;27.80;37.90
64549;DHT22;49838;51.798;10.954;2023-06-22T04:49:19;27.80;37.90
64549;DHT22;49838;51.798;10.954;2023-06-22T04:51:49;27.90;37.90
64549;DHT22;49838;51.798;10.954;2023-06-22T04:54:17;28.00;38.00
64549;DHT22;49838;51.798;10.954;2023-06-22T04:56:44;28.10;38.00
64549;DHT22;49838;51.798;10.954;2023-06-22T04:59:12;28.20;38.10
64549;DHT22;49838;51.798;10.954;2023-06-22T05:01:40;28.30;38.00
64549;DHT22;49838;51.798;10.954;2023-06-22T05:04:07;28.40;37.90
64549;DHT22;49838;51.798;10.954;2023-06-22T05:06:34;28.50;38.00
64549;DHT22;49838;51.798;10.954;2023-06-22T05:09:03;28.60;38.00
64549;DHT22;49838;51.798;10.954;2023-06-22T05:11:31;28.70;38.10
64549;DHT22;49838;51.798;10.954;2023-06-22T05:13:58;28.70;38.10
64549;DHT22;49838;51.798;10.954;2023-06-22T05:16:26;28.70;38.10
64549;DHT22;49838;51.798;10.954;2023-06-22T05:18:53;28.70;38.20
64549;DHT22;49838;51.798;10.954;2023-06-22T05:21:22;28.70;38.30
64549;DHT22;49838;51.798;10.954;2023-06-22T05:23:50;28.70;38.30
64549;DHT22;49838;51.798;10.954;2023-06-22T05:26:20;28.70;38.40
64549;DHT22;49838;51.798;10.954;2023-06-22T05:28:47;28.60;38.30
64549;DHT22;49838;51.798;10.954;2023-06-22T05:31:15;28.60;38.30
64549;DHT22;49838;51.798;10.954;2023-06-22T05:33:43;28.70;38.40
64549;DHT22;49838;51.798;10.954;2023-06-22T05:36:11;28.70;38.30
64549;DHT22;49838;51.798;10.954;2023-06-22T05:38:39;28.80;38.40
64549;DHT22;49838;51.798;10.954;2023-06-22T05:41:06;28.80;38.40
64549;DHT22;49838;51.798;10.954;2023-06-22T05:43:36;28.90;38.30
64549;DHT22;49838;51.798;10.954;2023-06-22T05:46:03;29.00;38.20
64549;DHT22;49838;51.798;10.954;2023-06-22T05:48:31;29.20;38.20
64549;DHT22;49838;51.798;10.954;2023-06-22T05:50:58;29.30;38.20
64549;DHT22;49838;51.798;10.954;2023-06-22T05:53:26;29.30;38.20
64549;DHT22;49838;51.798;10.954;2023-06-22T05:55:53;29.40;38.20
64549;DHT22;49838;51.798;10.954;2023-06-22T05:58:20;29.40;38.20
64549;DHT22;49838;51.798;10.954;2023-06-22T06:00:49;29.40;38.30
64549;DHT22;49838;51.798;10.954;2023-06-22T06:03:16;29.40;38.30
64549;DHT22;49838;51.798;10.954;2023-06-22T06:05:44;29.40;38.30
64549;DHT22;49838;51.798;10.954;2023-06-22T06:08:11;29.50;38.30
64549;DHT22;49838;51.798;10.954;2023-06-22T06:10:39;29.50;38.30
64549;DHT22;49838;51.798;10.954;2023-06-22T06:13:06;29.50;38.30
64549;DHT22;49838;51.798;10.954;2023-06-22T06:15:34;29.70;38.40
64549;DHT22;49838;51.798;10.954;2023-06-22T06:18:03;29.80;38.20
64549;DHT22;49838;51.798;10.954;2023-06-22T06:20:32;29.90;38.30
64549;DHT22;49838;51.798;10.954;2023-06-22T06:22:59;30.00;38.20
64549;DHT22;49838;51.798;10.954;2023-06-22T06:25:27;30.10;38.80
64549;DHT22;49838;51.798;10.954;2023-06-22T06:27:54;30.20;38.10
64549;DHT22;49838;51.798;10.954;2023-06-22T06:30:22;30.30;38.10
64549;DHT22;49838;51.798;10.954;2023-06-22T06:32:49;30.40;38.10
64549;DHT22;49838;51.798;10.954;2023-06-22T06:35:18;30.50;38.20
64549;DHT22;49838;51.798;10.954;2023-06-22T06:37:47;30.50;38.10
64549;DHT22;49838;51.798;10.954;2023-06-22T06:40:16;30.60;38.10
64549;DHT22;49838;51.798;10.954;2023-06-22T06:42:44;30.60;38.00
64549;DHT22;49838;51.798;10.954;2023-06-22T06:45:14;30.70;38.10
64549;DHT22;49838;51.798;10.954;2023-06-22T06:47:43;30.70;38.10
64549;DHT22;49838;51.798;10.954;2023-06-22T06:50:10;30.80;38.10
64549;DHT22;49838;51.798;10.954;2023-06-22T06:52:39;30.90;38.30
64549;DHT22;49838;51.798;10.954;2023-06-22T06:55:07;31.00;38.30
64549;DHT22;49838;51.798;10.954;2023-06-22T06:57:38;31.00;38.30
64549;DHT22;49838;51.798;10.954;2023-06-22T07:00:06;31.10;38.30
64549;DHT22;49838;51.798;10.954;2023-06-22T07:02:37;31.10;38.30
64549;DHT22;49838;51.798;10.954;2023-06-22T07:05:06;31.20;38.30
64549;DHT22;49838;51.798;10.954;2023-06-22T07:07:34;31.30;38.30
64549;DHT22;49838;51.798;10.954;2023-06-22T07:10:04;31.30;38.30
64549;DHT22;49838;51.798;10.954;2023-06-22T07:12:32;31.50;38.40
64549;DHT22;49838;51.798;10.954;2023-06-22T07:15:02;31.70;38.40
64549;DHT22;49838;51.798;10.954;2023-06-22T07:17:31;31.80;38.30
64549;DHT22;49838;51.798;10.954;2023-06-22T07:19:58;31.90;38.30
64549;DHT22;49838;51.798;10.954;2023-06-22T07:22:26;32.10;38.40
64549;DHT22;49838;51.798;10.954;2023-06-22T07:24:53;32.20;38.30
64549;DHT22;49838;51.798;10.954;2023-06-22T07:27:22;32.30;38.20
64549;DHT22;49838;51.798;10.954;2023-06-22T07:29:49;32.30;38.10
64549;DHT22;49838;51.798;10.954;2023-06-22T07:32:16;32.30;38.20
64549;DHT22;49838;51.798;10.954;2023-06-22T07:34:44;32.40;38.20
64549;DHT22;49838;51.798;10.954;2023-06-22T07:37:11;32.60;38.90
64549;DHT22;49838;51.798;10.954;2023-06-22T07:39:38;32.70;38.20
64549;DHT22;49838;51.798;10.954;2023-06-22T07:42:06;32.70;38.10
64549;DHT22;49838;51.798;10.954;2023-06-22T07:44:34;32.70;38.00
64549;DHT22;49838;51.798;10.954;2023-06-22T07:47:04;32.70;38.00
64549;DHT22;49838;51.798;10.954;2023-06-22T07:49:32;32.60;38.00
64549;DHT22;49838;51.798;10.954;2023-06-22T07:51:59;32.60;38.10
64549;DHT22;49838;51.798;10.954;2023-06-22T07:54:27;32.50;38.00
64549;DHT22;49838;51.798;10.954;2023-06-22T07:56:54;32.50;38.20
64549;DHT22;49838;51.798;10.954;2023-06-22T07:59:21;32.30;38.20
64549;DHT22;49838;51.798;10.954;2023-06-22T08:01:50;32.30;38.50
64549;DHT22;49838;51.798;10.954;2023-06-22T08:04:17;32.30;38.50
64549;DHT22;49838;51.798;10.954;2023-06-22T08:06:44;32.30;38.60
64549;DHT22;49838;51.798;10.954;2023-06-22T08:09:12;32.30;38.60
64549;DHT22;49838;51.798;10.954;2023-06-22T08:11:39;32.40;38.70
64549;DHT22;49838;51.798;10.954;2023-06-22T08:14:06;32.50;38.70
64549;DHT22;49838;51.798;10.954;2023-06-22T08:16:33;32.70;38.60
64549;DHT22;49838;51.798;10.954;2023-06-22T08:19:02;33.00;38.60
64549;DHT22;49838;51.798;10.954;2023-06-22T08:21:29;33.40;38.50
64549;DHT22;49838;51.798;10.954;2023-06-22T08:23:57;33.70;38.50
64549;DHT22;49838;51.798;10.954;2023-06-22T08:26:24;34.10;38.50
64549;DHT22;49838;51.798;10.954;2023-06-22T08:28:51;34.50;38.50
64549;DHT22;49838;51.798;10.954;2023-06-22T08:31:18;34.90;38.50
64549;DHT22;49838;51.798;10.954;2023-06-22T08:33:46;35.10;38.40
64549;DHT22;49838;51.798;10.954;2023-06-22T08:36:14;35.20;38.20
64549;DHT22;49838;51.798;10.954;2023-06-22T08:38:42;35.20;38.30
64549;DHT22;49838;51.798;10.954;2023-06-22T08:41:10;35.20;38.30
64549;DHT22;49838;51.798;10.954;2023-06-22T08:43:37;35.20;38.30
64549;DHT22;49838;51.798;10.954;2023-06-22T08:46:05;35.20;38.20
64549;DHT22;49838;51.798;10.954;2023-06-22T08:48:32;35.20;38.10
64549;DHT22;49838;51.798;10.954;2023-06-22T08:51:00;35.30;38.20
64549;DHT22;49838;51.798;10.954;2023-06-22T08:53:29;35.50;38.20
64549;DHT22;49838;51.798;10.954;2023-06-22T08:55:56;35.90;38.20
64549;DHT22;49838;51.798;10.954;2023-06-22T08:58:23;36.30;38.30
64549;DHT22;49838;51.798;10.954;2023-06-22T09:00:50;36.70;38.40
64549;DHT22;49838;51.798;10.954;2023-06-22T09:03:18;36.90;38.40
64549;DHT22;49838;51.798;10.954;2023-06-22T09:05:46;37.00;38.20
64549;DHT22;49838;51.798;10.954;2023-06-22T09:08:14;37.00;38.10
64549;DHT22;49838;51.798;10.954;2023-06-22T09:10:42;37.00;38.10
64549;DHT22;49838;51.798;10.954;2023-06-22T09:13:10;37.10;38.20
64549;DHT22;49838;51.798;10.954;2023-06-22T09:15:37;37.30;38.40
64549;DHT22;49838;51.798;10.954;2023-06-22T09:18:04;37.80;38.70
64549;DHT22;49838;51.798;10.954;2023-06-22T09:20:32;38.20;38.30
64549;DHT22;49838;51.798;10.954;2023-06-22T09:22:59;38.50;38.30
64549;DHT22;49838;51.798;10.954;2023-06-22T09:25:26;38.90;38.20
64549;DHT22;49838;51.798;10.954;2023-06-22T09:27:55;39.20;38.20
64549;DHT22;49838;51.798;10.954;2023-06-22T09:30:22;39.50;38.40
64549;DHT22;49838;51.798;10.954;2023-06-22T09:32:49;40.00;38.00
64549;DHT22;49838;51.798;10.954;2023-06-22T09:35:17;40.30;37.90
64549;DHT22;49838;51.798;10.954;2023-06-22T09:37:46;40.40;37.20
64549;DHT22;49838;51.798;10.954;2023-06-22T09:40:13;40.60;37.10
64549;DHT22;49838;51.798;10.954;2023-06-22T09:42:42;40.80;37.10
64549;DHT22;49838;51.798;10.954;2023-06-22T09:45:11;41.10;37.40
64549;DHT22;49838;51.798;10.954;2023-06-22T09:47:38;41.40;37.50
64549;DHT22;49838;51.798;10.954;2023-06-22T09:50:06;41.60;36.80
64549;DHT22;49838;51.798;10.954;2023-06-22T09:52:34;41.80;36.40
64549;DHT22;49838;51.798;10.954;2023-06-22T09:55:01;42.10;36.60
64549;DHT22;49838;51.798;10.954;2023-06-22T09:57:29;42.30;36.20
64549;DHT22;49838;51.798;10.954;2023-06-22T09:59:57;42.30;35.80
64549;DHT22;49838;51.798;10.954;2023-06-22T10:02:26;42.10;35.60
64549;DHT22;49838;51.798;10.954;2023-06-22T10:04:53;42.10;35.70
64549;DHT22;49838;51.798;10.954;2023-06-22T10:07:20;42.00;35.50
64549;DHT22;49838;51.798;10.954;2023-06-22T10:09:47;41.90;35.00
64549;DHT22;49838;51.798;10.954;2023-06-22T10:12:15;41.90;35.00
64549;DHT22;49838;51.798;10.954;2023-06-22T10:14:42;41.80;35.20
64549;DHT22;49838;51.798;10.954;2023-06-22T10:17:09;41.70;34.50
64549;DHT22;49838;51.798;10.954;2023-06-22T10:19:38;41.60;34.40
64549;DHT22;49838;51.798;10.954;2023-06-22T10:22:09;41.40;34.60
64549;DHT22;49838;51.798;10.954;2023-06-22T10:24:37;41.40;34.10
64549;DHT22;49838;51.798;10.954;2023-06-22T10:27:10;41.50;34.40
64549;DHT22;49838;51.798;10.954;2023-06-22T10:29:37;41.70;34.40
64549;DHT22;49838;51.798;10.954;2023-06-22T10:32:05;41.80;33.40
64549;DHT22;49838;51.798;10.954;2023-06-22T10:34:34;41.70;33.30
64549;DHT22;49838;51.798;10.954;2023-06-22T10:37:06;41.70;32.90
64549;DHT22;49838;51.798;10.954;2023-06-22T10:39:33;41.60;33.50
64549;DHT22;49838;51.798;10.954;2023-06-22T10:42:00;41.60;34.10
64549;DHT22;49838;51.798;10.954;2023-06-22T10:44:27;41.70;34.20
64549;DHT22;49838;51.798;10.954;2023-06-22T10:46:55;41.70;33.50
64549;DHT22;49838;51.798;10.954;2023-06-22T10:49:22;41.70;34.00
64549;DHT22;49838;51.798;10.954;2023-06-22T10:51:49;41.70;33.00
64549;DHT22;49838;51.798;10.954;2023-06-22T10:54:21;41.70;33.40
64549;DHT22;49838;51.798;10.954;2023-06-22T10:56:48;41.60;33.50
64549;DHT22;49838;51.798;10.954;2023-06-22T10:59:16;41.60;33.30
64549;DHT22;49838;51.798;10.954;2023-06-22T11:01:43;41.40;33.00
64549;DHT22;49838;51.798;10.954;2023-06-22T11:04:10;41.30;33.30
64549;DHT22;49838;51.798;10.954;2023-06-22T11:06:37;41.20;32.60
64549;DHT22;49838;51.798;10.954;2023-06-22T11:09:05;41.00;33.10
64549;DHT22;49838;51.798;10.954;2023-06-22T11:11:33;40.70;33.20
64549;DHT22;49838;51.798;10.954;2023-06-22T11:14:01;40.50;32.70
64549;DHT22;49838;51.798;10.954;2023-06-22T11:16:28;40.30;32.40
64549;DHT22;49838;51.798;10.954;2023-06-22T11:18:55;40.20;32.50
64549;DHT22;49838;51.798;10.954;2023-06-22T11:21:22;40.10;32.50
64549;DHT22;49838;51.798;10.954;2023-06-22T11:23:50;40.00;32.70
64549;DHT22;49838;51.798;10.954;2023-06-22T11:26:17;39.90;32.30
64549;DHT22;49838;51.798;10.954;2023-06-22T11:28:46;39.90;32.20
64549;DHT22;49838;51.798;10.954;2023-06-22T11:31:13;39.70;31.70
64549;DHT22;49838;51.798;10.954;2023-06-22T11:33:41;39.60;32.70
64549;DHT22;49838;51.798;10.954;2023-06-22T11:36:08;39.50;32.00
64549;DHT22;49838;51.798;10.954;2023-06-22T11:38:37;39.40;32.20
64549;DHT22;49838;51.798;10.954;2023-06-22T11:41:05;39.40;32.30
64549;DHT22;49838;51.798;10.954;2023-06-22T11:43:32;39.40;32.00
64549;DHT22;49838;51.798;10.954;2023-06-22T11:46:01;39.40;32.20
64549;DHT22;49838;51.798;10.954;2023-06-22T11:48:29;39.40;32.10
64549;DHT22;49838;51.798;10.954;2023-06-22T11:50:56;39.40;32.00
64549;DHT22;49838;51.798;10.954;2023-06-22T11:53:25;39.30;32.10
64549;DHT22;49838;51.798;10.954;2023-06-22T11:55:53;39.20;32.20
64549;DHT22;49838;51.798;10.954;2023-06-22T11:58:21;39.10;31.80
64549;DHT22;49838;51.798;10.954;2023-06-22T12:00:48;38.90;31.70
64549;DHT22;49838;51.798;10.954;2023-06-22T12:03:17;38.70;31.60
64549;DHT22;49838;51.798;10.954;2023-06-22T12:05:44;38.60;32.10
64549;DHT22;49838;51.798;10.954;2023-06-22T12:08:12;38.50;32.10
64549;DHT22;49838;51.798;10.954;2023-06-22T12:10:40;38.40;31.50
64549;DHT22;49838;51.798;10.954;2023-06-22T12:13:07;38.30;31.40
64549;DHT22;49838;51.798;10.954;2023-06-22T12:15:34;38.10;31.40
64549;DHT22;49838;51.798;10.954;2023-06-22T12:18:02;38.00;31.60
64549;DHT22;49838;51.798;10.954;2023-06-22T12:20:31;37.90;31.70
64549;DHT22;49838;51.798;10.954;2023-06-22T12:22:58;37.70;31.60
64549;DHT22;49838;51.798;10.954;2023-06-22T12:25:25;37.60;31.80
64549;DHT22;49838;51.798;10.954;2023-06-22T12:27:52;37.60;32.10
64549;DHT22;49838;51.798;10.954;2023-06-22T12:30:21;37.60;32.20
64549;DHT22;49838;51.798;10.954;2023-06-22T12:32:48;37.60;32.20
64549;DHT22;49838;51.798;10.954;2023-06-22T12:35:17;37.70;32.30
64549;DHT22;49838;51.798;10.954;2023-06-22T12:37:45;37.70;32.30
64549;DHT22;49838;51.798;10.954;2023-06-22T12:40:13;37.60;32.00
64549;DHT22;49838;51.798;10.954;2023-06-22T12:42:40;37.60;32.00
64549;DHT22;49838;51.798;10.954;2023-06-22T12:45:08;37.50;32.20
64549;DHT22;49838;51.798;10.954;2023-06-22T12:47:36;37.50;32.10
64549;DHT22;49838;51.798;10.954;2023-06-22T12:50:04;37.40;31.90
64549;DHT22;49838;51.798;10.954;2023-06-22T12:52:32;37.30;32.10
64549;DHT22;49838;51.798;10.954;2023-06-22T12:55:01;37.30;32.20
64549;DHT22;49838;51.798;10.954;2023-06-22T12:57:28;37.30;32.10
64549;DHT22;49838;51.798;10.954;2023-06-22T12:59:55;37.40;32.20
64549;DHT22;49838;51.798;10.954;2023-06-22T13:02:24;37.30;32.00
64549;DHT22;49838;51.798;10.954;2023-06-22T13:04:51;37.30;32.00
64549;DHT22;49838;51.798;10.954;2023-06-22T13:07:19;37.30;32.00
64549;DHT22;49838;51.798;10.954;2023-06-22T13:09:46;37.30;32.20
64549;DHT22;49838;51.798;10.954;2023-06-22T13:12:19;37.30;32.20
64549;DHT22;49838;51.798;10.954;2023-06-22T13:14:46;37.40;32.30
64549;DHT22;49838;51.798;10.954;2023-06-22T13:17:14;37.40;32.00
64549;DHT22;49838;51.798;10.954;2023-06-22T13:19:42;37.40;31.90
64549;DHT22;49838;51.798;10.954;2023-06-22T13:22:25;37.40;31.90
64549;DHT22;49838;51.798;10.954;2023-06-22T13:24:54;37.30;32.00
64549;DHT22;49838;51.798;10.954;2023-06-22T13:27:23;37.30;32.00
64549;DHT22;49838;51.798;10.954;2023-06-22T13:29:52;37.20;32.00
64549;DHT22;49838;51.798;10.954;2023-06-22T13:32:20;37.10;31.90
64549;DHT22;49838;51.798;10.954;2023-06-22T13:34:47;37.20;32.10
64549;DHT22;49838;51.798;10.954;2023-06-22T13:37:14;37.30;32.00
64549;DHT22;49838;51.798;10.954;2023-06-22T13:39:42;37.20;32.00
64549;DHT22;49838;51.798;10.954;2023-06-22T13:42:09;37.20;31.90
64549;DHT22;49838;51.798;10.954;2023-06-22T13:44:38;37.30;32.00
64549;DHT22;49838;51.798;10.954;2023-06-22T13:47:05;37.40;32.00
64549;DHT22;49838;51.798;10.954;2023-06-22T13:49:33;37.40;31.90
64549;DHT22;49838;51.798;10.954;2023-06-22T13:52:00;37.60;31.80
64549;DHT22;49838;51.798;10.954;2023-06-22T13:54:29;37.70;31.80
64549;DHT22;49838;51.798;10.954;2023-06-22T13:56:56;37.80;31.70
64549;DHT22;49838;51.798;10.954;2023-06-22T13:59:23;37.90;31.80
64549;DHT22;49838;51.798;10.954;2023-06-22T14:01:53;37.90;31.80
64549;DHT22;49838;51.798;10.954;2023-06-22T14:04:21;37.80;31.70
64549;DHT22;49838;51.798;10.954;2023-06-22T14:06:50;37.70;31.70
64549;DHT22;49838;51.798;10.954;2023-06-22T14:09:17;37.60;31.80
64549;DHT22;49838;51.798;10.954;2023-06-22T14:11:44;37.60;31.90
64549;DHT22;49838;51.798;10.954;2023-06-22T14:14:12;37.60;32.00
64549;DHT22;49838;51.798;10.954;2023-06-22T14:16:39;37.70;31.90
64549;DHT22;49838;51.798;10.954;2023-06-22T14:19:08;37.70;32.00
64549;DHT22;49838;51.798;10.954;2023-06-22T14:21:35;37.70;31.60
64549;DHT22;49838;51.798;10.954;2023-06-22T14:24:02;37.80;31.50
64549;DHT22;49838;51.798;10.954;2023-06-22T14:26:30;37.80;31.70
64549;DHT22;49838;51.798;10.954;2023-06-22T14:28:57;37.80;31.50
64549;DHT22;49838;51.798;10.954;2023-06-22T14:31:24;37.80;31.50
64549;DHT22;49838;51.798;10.954;2023-06-22T14:33:52;37.80;31.50
64549;DHT22;49838;51.798;10.954;2023-06-22T14:36:20;37.80;31.50
64549;DHT22;49838;51.798;10.954;2023-06-22T14:38:48;37.80;31.50
64549;DHT22;49838;51.798;10.954;2023-06-22T14:41:15;37.80;31.30
64549;DHT22;49838;51.798;10.954;2023-06-22T14:43:43;37.60;30.90
64549;DHT22;49838;51.798;10.954;2023-06-22T14:46:12;37.50;31.00
64549;DHT22;49838;51.798;10.954;2023-06-22T14:48:39;37.40;31.00
64549;DHT22;49838;51.798;10.954;2023-06-22T14:51:07;37.30;30.90
64549;DHT22;49838;51.798;10.954;2023-06-22T14:53:36;37.20;31.10
64549;DHT22;49838;51.798;10.954;2023-06-22T14:56:04;37.10;31.40
64549;DHT22;49838;51.798;10.954;2023-06-22T14:58:31;37.00;31.50
64549;DHT22;49838;51.798;10.954;2023-06-22T15:01:00;37.00;31.60
64549;DHT22;49838;51.798;10.954;2023-06-22T15:03:27;36.90;31.70
64549;DHT22;49838;51.798;10.954;2023-06-22T15:05:56;36.90;31.70
64549;DHT22;49838;51.798;10.954;2023-06-22T15:08:24;36.90;31.80
64549;DHT22;49838;51.798;10.954;2023-06-22T15:10:54;36.90;31.70
64549;DHT22;49838;51.798;10.954;2023-06-22T15:13:21;36.90;31.70
64549;DHT22;49838;51.798;10.954;2023-06-22T15:15:50;36.80;31.70
64549;DHT22;49838;51.798;10.954;2023-06-22T15:18:17;36.80;31.70
64549;DHT22;49838;51.798;10.954;2023-06-22T15:20:45;36.80;31.90